sensor_id;sensor_type;location;lat;lon;timestamp;pressure;altitude;pressure_sealevel;temperature;humidity
42125;BME280;27787;44.594;11.046;2023-11-21T00:01:51;100515.16;;;9.22;100.00
42125;BME280;27787;44.594;11.046;2023-11-21T00:04:35;100514.25;;;9.21;100.00
42125;BME280;27787;44.594;11.046;2023-11-21T00:07:20;100518.66;;;9.24;100.00
42125;BME280;27787;44.594;11.046;2023-11-21T00:10:06;100507.31;;;9.26;100.00
42125;BME280;27787;44.594;11.046;2023-11-21T00:12:50;100501.13;;;9.24;100.00
42125;BME280;27787;44.594;11.046;2023-11-21T00:15:34;100494.13;;;9.25;100.00
42125;BME280;27787;44.594;11.046;2023-11-21T00:18:18;100494.09;;;9.23;100.00
42125;BME280;27787;44.594;11.046;2023-11-21T00:21:03;100495.03;;;9.28;100.00
42125;BME280;27787;44.594;11.046;2023-11-21T00:23:47;100495.06;;;9.36;100.00
42125;BME280;27787;44.594;11.046;2023-11-21T00:26:32;100502.97;;;9.36;100.00
42125;BME280;27787;44.594;11.046;2023-11-21T00:29:21;100498.53;;;9.26;100.00
42125;BME280;27787;44.594;11.046;2023-11-21T00:32:06;100494.03;;;9.15;100.00
42125;BME280;27787;44.594;11.046;2023-11-21T00:34:50;100493.97;;;9.09;100.00
42125;BME280;27787;44.594;11.046;2023-11-21T00:37:34;100502.72;;;9.05;100.00
42125;BME280;27787;44.594;11.046;2023-11-21T00:40:18;100493.91;;;9.02;100.00
42125;BME280;27787;44.594;11.046;2023-11-21T00:43:06;100476.38;;;9.04;100.00
42125;BME280;27787;44.594;11.046;2023-11-21T00:45:50;100478.16;;;9.06;100.00
42125;BME280;27787;44.594;11.046;2023-11-21T00:48:35;100471.16;;;9.10;100.00
42125;BME280;27787;44.594;11.046;2023-11-21T00:51:19;100474.72;;;9.13;100.00
42125;BME280;27787;44.594;11.046;2023-11-21T00:54:03;100460.69;;;9.14;100.00
42125;BME280;27787;44.594;11.046;2023-11-21T00:56:48;100455.41;;;9.13;100.00
42125;BME280;27787;44.594;11.046;2023-11-21T00:59:32;100448.38;;;9.12;100.00
42125;BME280;27787;44.594;11.046;2023-11-21T01:02:16;100440.47;;;9.12;100.00
42125;BME280;27787;44.594;11.046;2023-11-21T01:05:00;100439.59;;;9.11;100.00
42125;BME280;27787;44.594;11.046;2023-11-21T01:07:44;100425.50;;;9.09;100.00
42125;BME280;27787;44.594;11.046;2023-11-21T01:10:28;100425.50;;;9.09;100.00
42125;BME280;27787;44.594;11.046;2023-11-21T01:13:14;100419.41;;;9.12;100.00
42125;BME280;27787;44.594;11.046;2023-11-21T01:15:59;100401.00;;;9.16;100.00
42125;BME280;27787;44.594;11.046;2023-11-21T01:18:42;100396.63;;;9.20;100.00
42125;BME280;27787;44.594;11.046;2023-11-21T01:21:27;100381.72;;;9.24;100.00
42125;BME280;27787;44.594;11.046;2023-11-21T01:24:12;100366.88;;;9.35;100.00
42125;BME280;27787;44.594;11.046;2023-11-21T01:26:56;100361.66;;;9.45;100.00
42125;BME280;27787;44.594;11.046;2023-11-21T01:29:41;100339.75;;;9.53;100.00
42125;BME280;27787;44.594;11.046;2023-11-21T01:32:25;100347.69;;;9.59;100.00
42125;BME280;27787;44.594;11.046;2023-11-21T01:35:10;100359.09;;;9.58;100.00
42125;BME280;27787;44.594;11.046;2023-11-21T01:37:54;100372.25;;;9.53;100.00
42125;BME280;27787;44.594;11.046;2023-11-21T01:40:38;100390.66;;;9.45;100.00
42125;BME280;27787;44.594;11.046;2023-11-21T01:43:22;100392.34;;;9.36;100.00
42125;BME280;27787;44.594;11.046;2023-11-21T01:46:08;100405.47;;;9.27;100.00
42125;BME280;27787;44.594;11.046;2023-11-21T01:48:53;100422.19;;;9.35;100.00
42125;BME280;27787;44.594;11.046;2023-11-21T01:51:38;100418.75;;;9.43;100.00
42125;BME280;27787;44.594;11.046;2023-11-21T01:54:23;100413.41;;;9.33;100.00
42125;BME280;27787;44.594;11.046;2023-11-21T01:57:07;100422.06;;;9.12;100.00
42125;BME280;27787;44.594;11.046;2023-11-21T01:59:54;100428.91;;;8.98;100.00
42125;BME280;27787;44.594;11.046;2023-11-21T02:02:38;100434.16;;;8.93;100.00
42125;BME280;27787;44.594;11.046;2023-11-21T02:05:22;100428.84;;;8.87;100.00
42125;BME280;27787;44.594;11.046;2023-11-21T02:08:07;100423.53;;;8.82;100.00
42125;BME280;27787;44.594;11.046;2023-11-21T02:10:53;100422.59;;;8.73;100.00
42125;BME280;27787;44.594;11.046;2023-11-21T02:13:37;100413.75;;;8.66;100.00
42125;BME280;27787;44.594;11.046;2023-11-21T02:16:21;100418.13;;;8.66;100.00
42125;BME280;27787;44.594;11.046;2023-11-21T02:19:07;100419.91;;;8.70;100.00
42125;BME280;27787;44.594;11.046;2023-11-21T02:21:53;100419.97;;;8.74;100.00
42125;BME280;27787;44.594;11.046;2023-11-21T02:24:41;100398.06;;;8.80;100.00
42125;BME280;27787;44.594;11.046;2023-11-21T02:27:26;100394.69;;;8.98;100.00
42125;BME280;27787;44.594;11.046;2023-11-21T02:30:11;100398.28;;;9.07;100.00
42125;BME280;27787;44.594;11.046;2023-11-21T02:32:57;100405.38;;;9.11;100.00
42125;BME280;27787;44.594;11.046;2023-11-21T02:35:43;100403.63;;;9.12;100.00
42125;BME280;27787;44.594;11.046;2023-11-21T02:38:27;100415.91;;;9.11;100.00
42125;BME280;27787;44.594;11.046;2023-11-21T02:41:12;100383.44;;;9.12;100.00
42125;BME280;27787;44.594;11.046;2023-11-21T02:43:56;100374.69;;;9.24;100.00
42125;BME280;27787;44.594;11.046;2023-11-21T02:46:40;100369.50;;;9.36;100.00
42125;BME280;27787;44.594;11.046;2023-11-21T02:49:23;100364.31;;;9.45;100.00
42125;BME280;27787;44.594;11.046;2023-11-21T02:52:08;100374.91;;;9.53;100.00
42125;BME280;27787;44.594;11.046;2023-11-21T02:54:52;100375.78;;;9.55;100.00
42125;BME280;27787;44.594;11.046;2023-11-21T02:57:37;100363.50;;;9.57;100.00
42125;BME280;27787;44.594;11.046;2023-11-21T03:00:21;100364.38;;;9.56;100.00
42125;BME280;27787;44.594;11.046;2023-11-21T03:03:10;100374.91;;;9.55;100.00
42125;BME280;27787;44.594;11.046;2023-11-21T03:05:54;100376.63;;;9.50;100.00
42125;BME280;27787;44.594;11.046;2023-11-21T03:08:37;100383.63;;;9.43;100.00
42125;BME280;27787;44.594;11.046;2023-11-21T03:11:22;100372.16;;;9.36;100.00
42125;BME280;27787;44.594;11.046;2023-11-21T03:14:06;100365.97;;;9.31;100.00
42125;BME280;27787;44.594;11.046;2023-11-21T03:16:51;100363.34;;;9.34;100.00
42125;BME280;27787;44.594;11.046;2023-11-21T03:19:35;100373.94;;;9.40;100.00
42125;BME280;27787;44.594;11.046;2023-11-21T03:22:19;100366.06;;;9.43;100.00
42125;BME280;27787;44.594;11.046;2023-11-21T03:25:04;100371.34;;;9.48;100.00
42125;BME280;27787;44.594;11.046;2023-11-21T03:27:49;100377.53;;;9.58;100.00
42125;BME280;27787;44.594;11.046;2023-11-21T03:30:33;100367.94;;;9.66;100.00
42125;BME280;27787;44.594;11.046;2023-11-21T03:33:17;100357.41;;;9.67;100.00
42125;BME280;27787;44.594;11.046;2023-11-21T03:36:01;100347.75;;;9.69;100.00
42125;BME280;27787;44.594;11.046;2023-11-21T03:38:47;100351.25;;;9.70;100.00
42125;BME280;27787;44.594;11.046;2023-11-21T03:41:32;100349.50;;;9.72;100.00
42125;BME280;27787;44.594;11.046;2023-11-21T03:44:17;100350.38;;;9.71;100.00
42125;BME280;27787;44.594;11.046;2023-11-21T03:47:03;100352.13;;;9.69;100.00
42125;BME280;27787;44.594;11.046;2023-11-21T03:49:47;100352.13;;;9.67;100.00
42125;BME280;27787;44.594;11.046;2023-11-21T03:52:33;100352.13;;;9.66;100.00
42125;BME280;27787;44.594;11.046;2023-11-21T03:55:19;100353.88;;;9.65;100.00
42125;BME280;27787;44.594;11.046;2023-11-21T03:58:04;100352.13;;;9.67;100.00
42125;BME280;27787;44.594;11.046;2023-11-21T04:00:47;100346.88;;;9.72;100.00
42125;BME280;27787;44.594;11.046;2023-11-21T04:03:34;100357.41;;;9.75;100.00
42125;BME280;27787;44.594;11.046;2023-11-21T04:06:19;100353.06;;;9.80;100.00
42125;BME280;27787;44.594;11.046;2023-11-21T04:09:03;100347.78;;;9.82;100.00
42125;BME280;27787;44.594;11.046;2023-11-21T04:11:48;100351.31;;;9.81;100.00
42125;BME280;27787;44.594;11.046;2023-11-21T04:14:32;100353.94;;;9.81;100.00
42125;BME280;27787;44.594;11.046;2023-11-21T04:17:20;100357.47;;;9.83;100.00
42125;BME280;27787;44.594;11.046;2023-11-21T04:20:05;100381.19;;;9.86;100.00
42125;BME280;27787;44.594;11.046;2023-11-21T04:22:53;100393.50;;;9.88;100.00
42125;BME280;27787;44.594;11.046;2023-11-21T04:25:38;100371.53;;;9.88;100.00
42125;BME280;27787;44.594;11.046;2023-11-21T04:28:21;100355.69;;;9.85;100.00
42125;BME280;27787;44.594;11.046;2023-11-21T04:31:06;100355.69;;;9.77;100.00
42125;BME280;27787;44.594;11.046;2023-11-21T04:33:51;100352.13;;;9.75;100.00
42125;BME280;27787;44.594;11.046;2023-11-21T04:36:35;100346.91;;;9.77;100.00
42125;BME280;27787;44.594;11.046;2023-11-21T04:39:19;100340.75;;;9.78;100.00
42125;BME280;27787;44.594;11.046;2023-11-21T04:42:04;100346.91;;;9.80;100.00
42125;BME280;27787;44.594;11.046;2023-11-21T04:44:49;100333.72;;;9.86;100.00
42125;BME280;27787;44.594;11.046;2023-11-21T04:47:33;100335.53;;;9.90;100.00
42125;BME280;27787;44.594;11.046;2023-11-21T04:50:17;100335.53;;;9.96;100.00
42125;BME280;27787;44.594;11.046;2023-11-21T04:53:01;100340.81;;;9.97;100.00
42125;BME280;27787;44.594;11.046;2023-11-21T04:55:45;100335.53;;;10.00;100.00
42125;BME280;27787;44.594;11.046;2023-11-21T04:58:30;100328.50;;;10.01;100.00
42125;BME280;27787;44.594;11.046;2023-11-21T05:01:14;100325.91;;;10.04;100.00
42125;BME280;27787;44.594;11.046;2023-11-21T05:03:58;100332.94;;;10.08;100.00
42125;BME280;27787;44.594;11.046;2023-11-21T05:06:42;100329.41;;;10.06;100.00
42125;BME280;27787;44.594;11.046;2023-11-21T05:09:26;100332.06;;;10.06;100.00
42125;BME280;27787;44.594;11.046;2023-11-21T05:12:12;100334.69;;;10.03;100.00
42125;BME280;27787;44.594;11.046;2023-11-21T05:14:57;100342.56;;;10.01;100.00
42125;BME280;27787;44.594;11.046;2023-11-21T05:17:42;100332.91;;;10.00;100.00
42125;BME280;27787;44.594;11.046;2023-11-21T05:20:27;100332.91;;;10.02;100.00
42125;BME280;27787;44.594;11.046;2023-11-21T05:23:11;100336.44;;;10.07;100.00
42125;BME280;27787;44.594;11.046;2023-11-21T05:25:55;100334.69;;;10.11;100.00
42125;BME280;27787;44.594;11.046;2023-11-21T05:28:41;100346.13;;;10.08;100.00
42125;BME280;27787;44.594;11.046;2023-11-21T05:31:24;100348.72;;;10.00;100.00
42125;BME280;27787;44.594;11.046;2023-11-21T05:34:08;100343.44;;;9.90;100.00
42125;BME280;27787;44.594;11.046;2023-11-21T05:36:52;100357.44;;;9.81;100.00
42125;BME280;27787;44.594;11.046;2023-11-21T05:39:37;100353.94;;;9.82;100.00
42125;BME280;27787;44.594;11.046;2023-11-21T05:42:22;100352.19;;;9.81;100.00
42125;BME280;27787;44.594;11.046;2023-11-21T05:45:07;100353.94;;;9.78;100.00
42125;BME280;27787;44.594;11.046;2023-11-21T05:47:55;100354.81;;;9.77;100.00
42125;BME280;27787;44.594;11.046;2023-11-21T05:50:39;100357.44;;;9.77;100.00
42125;BME280;27787;44.594;11.046;2023-11-21T05:53:23;100345.16;;;9.77;100.00
42125;BME280;27787;44.594;11.046;2023-11-21T05:56:08;100341.59;;;9.75;100.00
42125;BME280;27787;44.594;11.046;2023-11-21T05:58:52;100335.44;;;9.71;100.00
42125;BME280;27787;44.594;11.046;2023-11-21T06:01:36;100327.53;;;9.71;100.00
42125;BME280;27787;44.594;11.046;2023-11-21T06:04:22;100330.16;;;9.73;100.00
42125;BME280;27787;44.594;11.046;2023-11-21T06:07:07;100334.56;;;9.71;100.00
42125;BME280;27787;44.594;11.046;2023-11-21T06:09:52;100333.69;;;9.69;100.00
42125;BME280;27787;44.594;11.046;2023-11-21T06:12:36;100329.28;;;9.66;100.00
42125;BME280;27787;44.594;11.046;2023-11-21T06:15:21;100317.88;;;9.67;100.00
42125;BME280;27787;44.594;11.046;2023-11-21T06:18:07;100313.47;;;9.68;100.00
42125;BME280;27787;44.594;11.046;2023-11-21T06:20:54;100304.69;;;9.70;100.00
42125;BME280;27787;44.594;11.046;2023-11-21T06:23:39;100314.41;;;9.79;100.00
42125;BME280;27787;44.594;11.046;2023-11-21T06:26:23;100312.63;;;9.83;100.00
42125;BME280;27787;44.594;11.046;2023-11-21T06:29:08;100315.28;;;9.83;100.00
42125;BME280;27787;44.594;11.046;2023-11-21T06:31:52;100312.63;;;9.83;100.00
42125;BME280;27787;44.594;11.046;2023-11-21T06:34:36;100309.13;;;9.82;100.00
42125;BME280;27787;44.594;11.046;2023-11-21T06:37:21;100311.75;;;9.82;100.00
42125;BME280;27787;44.594;11.046;2023-11-21T06:40:07;100307.38;;;9.80;100.00
42125;BME280;27787;44.594;11.046;2023-11-21T06:42:54;100303.84;;;9.82;100.00
42125;BME280;27787;44.594;11.046;2023-11-21T06:45:38;100305.63;;;9.82;100.00
42125;BME280;27787;44.594;11.046;2023-11-21T06:48:22;100309.13;;;9.85;100.00
42125;BME280;27787;44.594;11.046;2023-11-21T06:51:06;100308.25;;;9.88;100.00
42125;BME280;27787;44.594;11.046;2023-11-21T06:53:51;100309.16;;;9.93;100.00
42125;BME280;27787;44.594;11.046;2023-11-21T06:56:35;100307.41;;;9.99;100.00
42125;BME280;27787;44.594;11.046;2023-11-21T06:59:19;100299.53;;;10.04;100.00
42125;BME280;27787;44.594;11.046;2023-11-21T07:02:04;100307.44;;;10.07;100.00
42125;BME280;27787;44.594;11.046;2023-11-21T07:04:50;100310.94;;;10.09;100.00
42125;BME280;27787;44.594;11.046;2023-11-21T07:07:34;100315.34;;;10.13;100.00
42125;BME280;27787;44.594;11.046;2023-11-21T07:10:19;100311.84;;;10.17;100.00
42125;BME280;27787;44.594;11.046;2023-11-21T07:13:04;100310.13;;;10.22;100.00
42125;BME280;27787;44.594;11.046;2023-11-21T07:15:49;100311.88;;;10.26;100.00
42125;BME280;27787;44.594;11.046;2023-11-21T07:18:33;100304.84;;;10.28;100.00
42125;BME280;27787;44.594;11.046;2023-11-21T07:21:17;100306.63;;;10.34;100.00
42125;BME280;27787;44.594;11.046;2023-11-21T07:24:02;100316.28;;;10.40;100.00
42125;BME280;27787;44.594;11.046;2023-11-21T07:26:46;100326.88;;;10.44;100.00
42125;BME280;27787;44.594;11.046;2023-11-21T07:29:31;100334.78;;;10.46;100.00
42125;BME280;27787;44.594;11.046;2023-11-21T07:32:16;100330.41;;;10.42;100.00
42125;BME280;27787;44.594;11.046;2023-11-21T07:35:00;100326.84;;;10.33;100.00
42125;BME280;27787;44.594;11.046;2023-11-21T07:37:45;100316.28;;;10.27;100.00
42125;BME280;27787;44.594;11.046;2023-11-21T07:40:30;100325.03;;;10.17;100.00
42125;BME280;27787;44.594;11.046;2023-11-21T07:43:14;100325.91;;;10.10;100.00
42125;BME280;27787;44.594;11.046;2023-11-21T07:45:59;100333.81;;;10.05;100.00
42125;BME280;27787;44.594;11.046;2023-11-21T07:48:43;100327.63;;;9.99;100.00
42125;BME280;27787;44.594;11.046;2023-11-21T07:51:28;100327.63;;;10.00;100.00
42125;BME280;27787;44.594;11.046;2023-11-21T07:54:12;100336.41;;;9.95;100.00
42125;BME280;27787;44.594;11.046;2023-11-21T07:56:56;100334.66;;;9.97;100.00
42125;BME280;27787;44.594;11.046;2023-11-21T07:59:40;100339.03;;;9.98;100.00
42125;BME280;27787;44.594;11.046;2023-11-21T08:02:24;100342.56;;;9.92;100.00
42125;BME280;27787;44.594;11.046;2023-11-21T08:05:09;100345.16;;;9.85;100.00
42125;BME280;27787;44.594;11.046;2023-11-21T08:07:54;100335.50;;;9.85;100.00
42125;BME280;27787;44.594;11.046;2023-11-21T08:10:39;100327.59;;;9.85;100.00
42125;BME280;27787;44.594;11.046;2023-11-21T08:13:28;100329.34;;;9.86;100.00
42125;BME280;27787;44.594;11.046;2023-11-21T08:16:12;100329.34;;;9.83;100.00
42125;BME280;27787;44.594;11.046;2023-11-21T08:18:57;100329.34;;;9.82;100.00
42125;BME280;27787;44.594;11.046;2023-11-21T08:21:41;100332.84;;;9.81;100.00
42125;BME280;27787;44.594;11.046;2023-11-21T08:24:25;100339.88;;;9.82;100.00
42125;BME280;27787;44.594;11.046;2023-11-21T08:27:10;100340.75;;;9.79;100.00
42125;BME280;27787;44.594;11.046;2023-11-21T08:29:54;100344.28;;;9.78;100.00
42125;BME280;27787;44.594;11.046;2023-11-21T08:32:38;100340.75;;;9.81;100.00
42125;BME280;27787;44.594;11.046;2023-11-21T08:35:22;100335.50;;;9.85;100.00
42125;BME280;27787;44.594;11.046;2023-11-21T08:38:07;100333.78;;;9.90;100.00
42125;BME280;27787;44.594;11.046;2023-11-21T08:40:51;100325.81;;;9.89;100.00
42125;BME280;27787;44.594;11.046;2023-11-21T08:43:36;100320.56;;;9.89;100.00
42125;BME280;27787;44.594;11.046;2023-11-21T08:46:23;100321.44;;;9.89;100.00
42125;BME280;27787;44.594;11.046;2023-11-21T08:49:09;100319.66;;;9.85;100.00
42125;BME280;27787;44.594;11.046;2023-11-21T08:51:54;100328.47;;;9.83;100.00
42125;BME280;27787;44.594;11.046;2023-11-21T08:54:39;100330.22;;;9.82;100.00
42125;BME280;27787;44.594;11.046;2023-11-21T08:57:23;100332.84;;;9.82;100.00
42125;BME280;27787;44.594;11.046;2023-11-21T09:00:08;100331.09;;;9.86;100.00
42125;BME280;27787;44.594;11.046;2023-11-21T09:03:03;100337.25;;;9.89;100.00
42125;BME280;27787;44.594;11.046;2023-11-21T09:05:52;100345.19;;;9.94;100.00
42125;BME280;27787;44.594;11.046;2023-11-21T09:08:36;100332.94;;;10.03;100.00
42125;BME280;27787;44.594;11.046;2023-11-21T09:11:21;100333.81;;;10.12;100.00
42125;BME280;27787;44.594;11.046;2023-11-21T09:14:05;100335.59;;;10.19;100.00
42125;BME280;27787;44.594;11.046;2023-11-21T09:16:50;100336.47;;;10.19;100.00
42125;BME280;27787;44.594;11.046;2023-11-21T09:19:35;100336.50;;;10.22;100.00
42125;BME280;27787;44.594;11.046;2023-11-21T09:22:19;100335.63;;;10.22;100.00
42125;BME280;27787;44.594;11.046;2023-11-21T09:25:04;100340.88;;;10.20;100.00
42125;BME280;27787;44.594;11.046;2023-11-21T09:27:52;100338.25;;;10.22;100.00
42125;BME280;27787;44.594;11.046;2023-11-21T09:30:36;100341.78;;;10.25;100.00
42125;BME280;27787;44.594;11.046;2023-11-21T09:33:20;100346.19;;;10.23;100.00
42125;BME280;27787;44.594;11.046;2023-11-21T09:36:11;100347.06;;;10.22;100.00
42125;BME280;27787;44.594;11.046;2023-11-21T09:38:55;100347.06;;;10.22;100.00
42125;BME280;27787;44.594;11.046;2023-11-21T09:41:46;100357.59;;;10.28;100.00
42125;BME280;27787;44.594;11.046;2023-11-21T09:45:03;100342.66;;;10.23;100.00
42125;BME280;27787;44.594;11.046;2023-11-21T09:47:49;100335.59;;;10.16;100.00
42125;BME280;27787;44.594;11.046;2023-11-21T09:50:34;100336.44;;;10.13;100.00
42125;BME280;27787;44.594;11.046;2023-11-21T09:53:22;100332.97;;;10.17;100.00
42125;BME280;27787;44.594;11.046;2023-11-21T09:56:08;100323.25;;;10.13;100.00
42125;BME280;27787;44.594;11.046;2023-11-21T09:58:54;100317.09;;;10.08;100.00
42125;BME280;27787;44.594;11.046;2023-11-21T10:01:42;100311.84;;;10.05;100.00
42125;BME280;27787;44.594;11.046;2023-11-21T10:04:27;100310.06;;;10.12;100.00
42125;BME280;27787;44.594;11.046;2023-11-21T10:07:13;100306.59;;;10.22;100.00
42125;BME280;27787;44.594;11.046;2023-11-21T10:10:01;100318.03;;;10.27;100.00
42125;BME280;27787;44.594;11.046;2023-11-21T10:12:49;100311.03;;;10.35;100.00
42125;BME280;27787;44.594;11.046;2023-11-21T10:15:34;100311.00;;;10.41;100.00
42125;BME280;27787;44.594;11.046;2023-11-21T10:18:19;100301.38;;;10.45;100.00
42125;BME280;27787;44.594;11.046;2023-11-21T10:21:03;100296.97;;;10.47;100.00
42125;BME280;27787;44.594;11.046;2023-11-21T10:23:48;100300.47;;;10.49;100.00
42125;BME280;27787;44.594;11.046;2023-11-21T10:26:32;100314.56;;;10.57;100.00
42125;BME280;27787;44.594;11.046;2023-11-21T10:29:17;100311.03;;;10.61;100.00
42125;BME280;27787;44.594;11.046;2023-11-21T10:32:05;100319.81;;;10.64;100.00
42125;BME280;27787;44.594;11.046;2023-11-21T10:34:56;100319.81;;;10.68;100.00
42125;BME280;27787;44.594;11.046;2023-11-21T10:37:41;100325.97;;;10.67;100.00
42125;BME280;27787;44.594;11.046;2023-11-21T10:40:27;100319.81;;;10.64;100.00
42125;BME280;27787;44.594;11.046;2023-11-21T10:43:13;100310.13;;;10.65;100.00
42125;BME280;27787;44.594;11.046;2023-11-21T10:45:58;100311.03;;;10.66;100.00
42125;BME280;27787;44.594;11.046;2023-11-21T10:48:52;100304.88;;;10.65;100.00
42125;BME280;27787;44.594;11.046;2023-11-21T10:51:38;100303.09;;;10.64;100.00
42125;BME280;27787;44.594;11.046;2023-11-21T10:54:27;100299.59;;;10.63;100.00
42125;BME280;27787;44.594;11.046;2023-11-21T10:57:12;100294.31;;;10.63;100.00
42125;BME280;27787;44.594;11.046;2023-11-21T10:59:59;100292.56;;;10.64;100.00
42125;BME280;27787;44.594;11.046;2023-11-21T11:02:43;100284.63;;;10.62;100.00
42125;BME280;27787;44.594;11.046;2023-11-21T11:05:31;100293.44;;;10.64;100.00
42125;BME280;27787;44.594;11.046;2023-11-21T11:08:21;100282.88;;;10.71;100.00
42125;BME280;27787;44.594;11.046;2023-11-21T11:11:09;100275.84;;;10.70;100.00
42125;BME280;27787;44.594;11.046;2023-11-21T11:13:54;100282.00;;;10.69;100.00
42125;BME280;27787;44.594;11.046;2023-11-21T11:16:41;100287.28;;;10.72;100.00
42125;BME280;27787;44.594;11.046;2023-11-21T11:19:27;100277.59;;;10.75;100.00
42125;BME280;27787;44.594;11.046;2023-11-21T11:22:34;100281.09;;;10.77;100.00
42125;BME280;27787;44.594;11.046;2023-11-21T11:28:31;100263.50;;;10.78;100.00
42125;BME280;27787;44.594;11.046;2023-11-21T11:34:46;100278.44;;;10.86;100.00
42125;BME280;27787;44.594;11.046;2023-11-21T11:37:31;100290.75;;;10.97;100.00
42125;BME280;27787;44.594;11.046;2023-11-21T11:40:16;100302.19;;;11.03;100.00
42125;BME280;27787;44.594;11.046;2023-11-21T11:43:01;100298.69;;;11.07;100.00
42125;BME280;27787;44.594;11.046;2023-11-21T11:45:48;100283.72;;;11.08;100.00
42125;BME280;27787;44.594;11.046;2023-11-21T11:48:39;100276.66;;;11.08;100.00
42125;BME280;27787;44.594;11.046;2023-11-21T11:51:23;100260.81;;;11.08;100.00
42125;BME280;27787;44.594;11.046;2023-11-21T11:54:07;100252.88;;;11.11;100.00
42125;BME280;27787;44.594;11.046;2023-11-21T11:56:52;100245.81;;;11.15;100.00
42125;BME280;27787;44.594;11.046;2023-11-21T12:03:01;100258.94;;;11.30;100.00
42125;BME280;27787;44.594;11.046;2023-11-21T12:05:48;100262.44;;;11.40;100.00
42125;BME280;27787;44.594;11.046;2023-11-21T12:08:36;100256.28;;;11.47;100.00
42125;BME280;27787;44.594;11.046;2023-11-21T12:11:30;100254.47;;;11.50;100.00
42125;BME280;27787;44.594;11.046;2023-11-21T12:14:15;100256.22;;;11.51;100.00
42125;BME280;27787;44.594;11.046;2023-11-21T12:17:00;100265.06;;;11.49;100.00
42125;BME280;27787;44.594;11.046;2023-11-21T12:19:44;100261.56;;;11.47;100.00
42125;BME280;27787;44.594;11.046;2023-11-21T12:22:28;100263.28;;;11.49;100.00
42125;BME280;27787;44.594;11.046;2023-11-21T12:25:14;100257.97;;;11.54;100.00
42125;BME280;27787;44.594;11.046;2023-11-21T12:28:00;100265.03;;;11.55;100.00
42125;BME280;27787;44.594;11.046;2023-11-21T12:30:45;100266.78;;;11.56;100.00
42125;BME280;27787;44.594;11.046;2023-11-21T12:33:29;100266.78;;;11.56;100.00
42125;BME280;27787;44.594;11.046;2023-11-21T12:36:13;100250.94;;;11.53;100.00
42125;BME280;27787;44.594;11.046;2023-11-21T12:38:58;100243.88;;;11.53;100.00
42125;BME280;27787;44.594;11.046;2023-11-21T12:41:42;100248.25;;;11.58;100.00
42125;BME280;27787;44.594;11.046;2023-11-21T12:44:26;100245.59;;;11.64;100.00
42125;BME280;27787;44.594;11.046;2023-11-21T12:47:10;100245.56;;;11.67;100.00
42125;BME280;27787;44.594;11.046;2023-11-21T12:49:59;100242.03;;;11.69;100.00
42125;BME280;27787;44.594;11.046;2023-11-21T12:52:45;100247.31;;;11.72;100.00
42125;BME280;27787;44.594;11.046;2023-11-21T12:55:33;100242.91;;;11.73;100.00
42125;BME280;27787;44.594;11.046;2023-11-21T12:58:23;100241.16;;;11.72;100.00
42125;BME280;27787;44.594;11.046;2023-11-21T13:01:09;100233.22;;;11.72;100.00
42125;BME280;27787;44.594;11.046;2023-11-21T13:03:57;100233.19;;;11.75;100.00
42125;BME280;27787;44.594;11.046;2023-11-21T13:06:42;100235.84;;;11.75;100.00
42125;BME280;27787;44.594;11.046;2023-11-21T13:09:27;100242.00;;;11.75;100.00
42125;BME280;27787;44.594;11.046;2023-11-21T13:12:11;100239.34;;;11.77;100.00
42125;BME280;27787;44.594;11.046;2023-11-21T13:14:56;100234.97;;;11.79;100.00
42125;BME280;27787;44.594;11.046;2023-11-21T13:17:40;100242.91;;;11.79;100.00
42125;BME280;27787;44.594;11.046;2023-11-21T13:20:25;100230.56;;;11.79;100.00
42125;BME280;27787;44.594;11.046;2023-11-21T13:23:10;100228.75;;;11.78;100.00
42125;BME280;27787;44.594;11.046;2023-11-21T13:25:59;100224.38;;;11.80;100.00
42125;BME280;27787;44.594;11.046;2023-11-21T13:28:48;100219.94;;;11.87;100.00
42125;BME280;27787;44.594;11.046;2023-11-21T13:31:32;100218.09;;;11.95;100.00
42125;BME280;27787;44.594;11.046;2023-11-21T13:34:20;100222.47;;;12.04;100.00
42125;BME280;27787;44.594;11.046;2023-11-21T13:37:06;100215.38;;;12.07;100.00
42125;BME280;27787;44.594;11.046;2023-11-21T13:39:51;100230.34;;;12.12;100.00
42125;BME280;27787;44.594;11.046;2023-11-21T13:42:36;100230.34;;;12.13;100.00
42125;BME280;27787;44.594;11.046;2023-11-21T13:45:21;100234.75;;;12.14;100.00
42125;BME280;27787;44.594;11.046;2023-11-21T13:48:07;100230.34;;;12.13;100.00
42125;BME280;27787;44.594;11.046;2023-11-21T13:50:54;100241.81;;;12.12;100.00
42125;BME280;27787;44.594;11.046;2023-11-21T13:53:57;100247.13;;;12.06;100.00
42125;BME280;27787;44.594;11.046;2023-11-21T13:56:42;100241.03;;;11.95;100.00
42125;BME280;27787;44.594;11.046;2023-11-21T13:59:28;100239.31;;;11.85;100.00
42125;BME280;27787;44.594;11.046;2023-11-21T14:02:14;100242.91;;;11.79;100.00
42125;BME280;27787;44.594;11.046;2023-11-21T14:05:02;100245.56;;;11.74;100.00
42125;BME280;27787;44.594;11.046;2023-11-21T14:07:53;100244.66;;;11.74;100.00
42125;BME280;27787;44.594;11.046;2023-11-21T14:10:37;100238.53;;;11.72;100.00
42125;BME280;27787;44.594;11.046;2023-11-21T14:13:27;100240.28;;;11.73;100.00
42125;BME280;27787;44.594;11.046;2023-11-21T14:16:11;100242.91;;;11.73;100.00
42125;BME280;27787;44.594;11.046;2023-11-21T14:18:55;100242.91;;;11.73;100.00